Time;durP1;ratioP1;P1;durP2;ratioP2;P2;SDS_P1;SDS_P2;PMS_P1;PMS_P2;Temp;Humidity;BMP_temperature;BMP_pressure;BME280_temperature;BME280_humidity;BME280_pressure;Samples;Min_cycle;Max_cycle;Signal;HPM_P1;HPM_P2
2023/10/30 00:01:48;;;;;;;6.43;2.30;;;12.70;99.90;;;;;;4975618;28;20659;-73
2023/10/30 00:04:14;;;;;;;11.30;2.40;;;12.70;99.90;;;;;;4975372;28;20180;-72
2023/10/30 00:06:40;;;;;;;9.20;2.63;;;12.70;99.90;;;;;;4975495;28;20179;-72
2023/10/30 00:09:06;;;;;;;8.87;2.77;;;12.70;99.90;;;;;;4975658;28;20664;-73
2023/10/30 00:11:31;;;;;;;7.40;2.30;;;12.70;99.90;;;;;;4974190;28;20180;-72
2023/10/30 00:13:57;;;;;;;12.20;2.67;;;12.70;99.90;;;;;;4975006;28;20543;-72
2023/10/30 00:16:23;;;;;;;7.83;2.50;;;12.70;99.90;;;;;;4973905;28;20176;-72
2023/10/30 00:18:49;;;;;;;9.13;2.50;;;12.80;99.90;;;;;;4975222;28;20234;-73
2023/10/30 00:21:15;;;;;;;11.43;3.00;;;12.80;99.90;;;;;;4975288;28;20184;-73
2023/10/30 00:23:41;;;;;;;8.80;2.47;;;12.80;99.90;;;;;;4974923;28;20199;-73
2023/10/30 00:26:07;;;;;;;10.50;2.70;;;12.80;99.90;;;;;;4975595;28;20171;-72
2023/10/30 00:28:36;;;;;;;11.27;3.10;;;12.70;99.90;;;;;;4974839;28;20179;-73
2023/10/30 00:31:02;;;;;;;7.07;2.60;;;12.70;99.90;;;;;;4975121;28;20270;-72
2023/10/30 00:33:27;;;;;;;7.23;2.60;;;12.70;99.90;;;;;;4975107;28;20286;-73
2023/10/30 00:35:53;;;;;;;6.67;2.73;;;12.70;99.90;;;;;;4974937;28;20172;-72
2023/10/30 00:38:18;;;;;;;9.43;2.70;;;12.70;99.90;;;;;;4975133;28;20218;-72
2023/10/30 00:40:44;;;;;;;9.23;2.90;;;12.70;99.90;;;;;;4973721;28;20179;-72
2023/10/30 00:43:10;;;;;;;12.10;3.07;;;12.70;99.90;;;;;;4974670;28;20203;-72
2023/10/30 00:45:36;;;;;;;6.50;2.80;;;12.70;99.90;;;;;;4974790;28;20176;-72
2023/10/30 00:48:02;;;;;;;7.73;2.73;;;12.70;99.90;;;;;;4974850;28;20172;-72
2023/10/30 00:50:27;;;;;;;9.30;3.20;;;12.70;99.90;;;;;;4974735;28;20191;-72
2023/10/30 00:52:53;;;;;;;12.77;3.50;;;12.80;99.90;;;;;;4974632;28;20239;-71
2023/10/30 00:55:19;;;;;;;9.93;3.43;;;12.80;99.90;;;;;;4974547;28;20694;-72
2023/10/30 00:57:44;;;;;;;8.37;3.20;;;12.80;99.90;;;;;;4974273;28;20176;-72
2023/10/30 01:00:11;;;;;;;10.53;4.07;;;12.80;99.90;;;;;;4974479;28;20211;-72
2023/10/30 01:02:36;;;;;;;7.50;3.50;;;12.80;99.90;;;;;;4974695;28;20180;-73
2023/10/30 01:05:02;;;;;;;11.57;3.80;;;12.80;99.90;;;;;;4973541;28;20180;-72
2023/10/30 01:07:28;;;;;;;14.27;3.73;;;13.00;99.90;;;;;;4974546;28;20179;-72
2023/10/30 01:09:53;;;;;;;9.93;3.17;;;12.90;99.90;;;;;;4974677;28;20172;-71
2023/10/30 01:12:19;;;;;;;9.10;3.27;;;12.90;99.90;;;;;;4974121;28;20167;-72
2023/10/30 01:14:45;;;;;;;10.67;3.43;;;12.90;99.90;;;;;;4974232;28;20298;-72
2023/10/30 01:17:10;;;;;;;8.40;2.87;;;12.90;99.90;;;;;;4974435;28;20172;-72
2023/10/30 01:19:36;;;;;;;11.93;2.77;;;12.80;99.90;;;;;;4974551;28;20191;-72
2023/10/30 01:22:01;;;;;;;8.53;2.43;;;12.80;99.90;;;;;;4974561;28;20187;-72
2023/10/30 01:24:27;;;;;;;12.80;3.17;;;12.80;99.90;;;;;;4972887;28;20232;-72
2023/10/30 01:26:53;;;;;;;8.13;2.67;;;12.80;99.90;;;;;;4972710;28;20172;-73
2023/10/30 01:29:18;;;;;;;8.73;2.43;;;12.80;99.90;;;;;;4974195;28;20172;-72
2023/10/30 01:31:44;;;;;;;10.47;2.57;;;12.80;99.90;;;;;;4974304;28;20184;-72
2023/10/30 01:34:09;;;;;;;8.30;2.53;;;12.90;99.90;;;;;;4974511;28;20610;-72
2023/10/30 01:36:35;;;;;;;7.63;2.67;;;12.80;99.90;;;;;;4974362;28;20552;-71
2023/10/30 01:39:01;;;;;;;8.43;2.57;;;12.80;99.90;;;;;;4974273;28;20592;-72
2023/10/30 01:41:27;;;;;;;7.00;2.57;;;12.80;99.90;;;;;;4974042;28;20170;-72
2023/10/30 01:43:53;;;;;;;9.20;2.63;;;12.80;99.90;;;;;;4974143;28;20184;-72
2023/10/30 01:46:19;;;;;;;4.23;2.17;;;12.80;99.90;;;;;;4974432;28;20171;-72
2023/10/30 01:48:46;;;;;;;8.30;2.60;;;12.90;99.90;;;;;;4974288;28;20280;-71
2023/10/30 01:51:12;;;;;;;8.23;2.23;;;12.90;99.90;;;;;;4972901;28;20188;-72
2023/10/30 01:53:38;;;;;;;9.40;2.47;;;12.80;99.90;;;;;;4974296;28;20745;-72
2023/10/30 01:56:05;;;;;;;10.30;2.43;;;12.80;99.90;;;;;;4973791;28;20231;-72
2023/10/30 01:58:31;;;;;;;7.27;2.10;;;12.80;99.90;;;;;;4974088;28;20196;-72
2023/10/30 02:00:57;;;;;;;12.23;2.50;;;12.80;99.90;;;;;;4974172;28;20711;-72
2023/10/30 02:03:23;;;;;;;9.77;2.43;;;12.80;99.90;;;;;;4972876;28;20694;-72
2023/10/30 02:05:50;;;;;;;4.43;2.17;;;12.90;99.90;;;;;;4974187;28;20172;-72
2023/10/30 02:08:16;;;;;;;7.80;2.27;;;12.90;99.90;;;;;;4975268;28;20179;-73
2023/10/30 02:10:42;;;;;;;11.37;2.90;;;12.90;99.90;;;;;;4977512;28;20270;-72
2023/10/30 02:13:08;;;;;;;8.10;2.30;;;13.00;99.90;;;;;;4977892;28;20286;-73
2023/10/30 02:15:35;;;;;;;12.43;2.20;;;13.00;99.90;;;;;;4977663;28;20179;-72
2023/10/30 02:18:00;;;;;;;12.33;2.20;;;12.90;99.90;;;;;;4977910;28;20172;-72
2023/10/30 02:20:27;;;;;;;11.83;2.50;;;12.90;99.90;;;;;;4976521;28;20178;-72
2023/10/30 02:22:52;;;;;;;6.90;2.30;;;12.90;99.90;;;;;;4977837;28;20260;-72
2023/10/30 02:25:19;;;;;;;10.70;2.67;;;12.90;99.90;;;;;;4977034;28;20677;-72
2023/10/30 02:27:45;;;;;;;8.97;2.27;;;12.90;99.90;;;;;;4977367;28;20176;-72
2023/10/30 02:30:11;;;;;;;7.80;2.37;;;12.90;99.90;;;;;;4977520;28;20639;-72
2023/10/30 02:32:42;;;;;;;11.37;2.50;;;13.00;99.90;;;;;;4977632;28;20625;-71
2023/10/30 02:35:12;;;;;;;10.60;2.10;;;13.00;99.90;;;;;;4977390;28;20211;-72
2023/10/30 02:37:37;;;;;;;9.03;2.50;;;13.00;99.90;;;;;;4977530;28;20658;-72
2023/10/30 02:40:04;;;;;;;9.07;2.30;;;13.00;99.90;;;;;;4975527;28;20183;-71
2023/10/30 02:42:29;;;;;;;9.30;2.37;;;13.00;99.90;;;;;;4977385;28;20180;-71
2023/10/30 02:44:55;;;;;;;8.63;2.40;;;12.90;99.90;;;;;;4977219;28;20534;-72
2023/10/30 02:47:23;;;;;;;8.23;2.07;;;12.90;99.90;;;;;;4977362;28;20176;-73
2023/10/30 02:49:49;;;;;;;8.73;2.57;;;12.90;99.90;;;;;;4977162;28;20235;-73
2023/10/30 02:52:14;;;;;;;7.77;2.23;;;12.90;99.90;;;;;;4977099;28;20215;-72
2023/10/30 02:54:40;;;;;;;10.37;2.67;;;12.90;99.90;;;;;;4976486;28;20213;-72
2023/10/30 02:57:05;;;;;;;11.30;2.20;;;12.80;99.90;;;;;;4975712;28;20176;-74
2023/10/30 02:59:31;;;;;;;8.60;2.13;;;12.80;99.90;;;;;;4975723;28;20187;-72
2023/10/30 03:01:58;;;;;;;7.87;2.23;;;12.80;99.90;;;;;;4977064;28;20168;-73
2023/10/30 03:04:24;;;;;;;9.87;2.20;;;12.80;99.90;;;;;;4976899;28;20262;-72
2023/10/30 03:06:50;;;;;;;12.30;2.50;;;12.70;99.90;;;;;;4975569;28;20176;-72
2023/10/30 03:09:15;;;;;;;9.00;2.20;;;12.70;99.90;;;;;;4976408;28;20175;-72
2023/10/30 03:11:41;;;;;;;9.93;2.40;;;12.70;99.90;;;;;;4976684;28;20271;-72
2023/10/30 03:14:07;;;;;;;9.70;2.40;;;12.70;99.90;;;;;;4976743;28;20262;-72
2023/10/30 03:16:32;;;;;;;11.90;2.40;;;12.80;99.90;;;;;;4976445;28;20207;-71
2023/10/30 03:18:58;;;;;;;11.13;2.77;;;12.70;99.90;;;;;;4976332;28;20176;-72
2023/10/30 03:21:24;;;;;;;7.60;2.07;;;12.70;99.90;;;;;;4976617;28;20175;-73
2023/10/30 03:23:49;;;;;;;8.53;2.23;;;12.70;99.90;;;;;;4975978;28;20224;-73
2023/10/30 03:26:15;;;;;;;8.77;2.30;;;12.70;99.90;;;;;;4976405;28;20180;-73
2023/10/30 03:28:40;;;;;;;13.57;2.20;;;12.70;99.90;;;;;;4976340;28;20183;-72
2023/10/30 03:31:07;;;;;;;7.70;2.33;;;12.70;99.90;;;;;;4976414;28;20204;-72
2023/10/30 03:33:32;;;;;;;10.17;2.50;;;12.60;99.90;;;;;;4976091;28;20219;-72
2023/10/30 03:35:58;;;;;;;10.90;2.37;;;12.70;99.90;;;;;;4976232;28;20187;-72
2023/10/30 03:38:23;;;;;;;9.30;2.57;;;12.60;99.90;;;;;;4975855;28;20168;-73
2023/10/30 03:40:49;;;;;;;8.63;2.40;;;12.60;99.90;;;;;;4975767;28;20564;-72
2023/10/30 03:43:16;;;;;;;5.63;2.07;;;12.60;99.90;;;;;;4976216;28;20176;-72
2023/10/30 03:45:41;;;;;;;12.83;2.53;;;12.60;99.90;;;;;;4958848;28;20311;-72
2023/10/30 03:48:08;;;;;;;8.13;2.30;;;12.60;99.90;;;;;;4975913;28;20276;-72
2023/10/30 03:50:33;;;;;;;8.43;2.50;;;12.60;99.90;;;;;;4975817;28;20192;-72
2023/10/30 03:52:59;;;;;;;7.93;2.00;;;12.50;99.90;;;;;;4975419;28;20235;-73
2023/10/30 03:55:24;;;;;;;12.57;2.30;;;12.50;99.90;;;;;;4975811;28;20168;-73
2023/10/30 03:57:50;;;;;;;10.13;2.27;;;12.50;99.90;;;;;;4975968;28;20596;-72
2023/10/30 04:00:16;;;;;;;8.47;2.10;;;12.50;99.90;;;;;;4975724;28;20263;-72
2023/10/30 04:02:41;;;;;;;10.47;2.20;;;12.50;99.90;;;;;;4975752;28;20175;-72
2023/10/30 04:05:08;;;;;;;4.23;2.10;;;12.50;99.90;;;;;;4975504;28;20184;-72
2023/10/30 04:07:33;;;;;;;10.70;2.47;;;12.50;99.90;;;;;;4974074;28;20624;-72
2023/10/30 04:09:59;;;;;;;9.70;2.40;;;12.50;99.90;;;;;;4975676;28;20183;-71
2023/10/30 04:12:24;;;;;;;12.27;2.23;;;12.40;99.90;;;;;;4975612;28;20691;-72
2023/10/30 04:14:51;;;;;;;9.10;2.30;;;12.40;99.90;;;;;;4975187;28;20222;-72
2023/10/30 04:17:17;;;;;;;7.73;2.30;;;12.40;99.90;;;;;;4975405;28;20275;-72
2023/10/30 04:19:42;;;;;;;13.07;2.67;;;12.40;99.90;;;;;;4975023;28;20189;-71
2023/10/30 04:22:08;;;;;;;10.73;2.60;;;12.40;99.90;;;;;;4974448;28;20179;-72
2023/10/30 04:24:34;;;;;;;9.53;2.00;;;12.40;99.90;;;;;;4974863;28;20695;-72
2023/10/30 04:27:00;;;;;;;6.70;2.00;;;12.40;99.90;;;;;;4973765;28;20684;-72
2023/10/30 04:29:26;;;;;;;7.67;2.27;;;12.30;99.90;;;;;;4974993;28;20179;-73
2023/10/30 04:31:52;;;;;;;9.23;2.27;;;12.30;99.90;;;;;;4974356;28;20175;-72
2023/10/30 04:34:19;;;;;;;8.30;2.30;;;12.30;99.90;;;;;;4974897;28;20674;-72
2023/10/30 04:36:45;;;;;;;9.43;2.60;;;12.20;99.90;;;;;;4974497;28;20204;-71
2023/10/30 04:39:11;;;;;;;8.53;2.47;;;12.20;99.90;;;;;;4974679;28;20547;-71
2023/10/30 04:41:37;;;;;;;9.73;2.30;;;12.20;99.90;;;;;;4974820;28;20183;-73
2023/10/30 04:44:03;;;;;;;7.13;2.17;;;12.10;99.90;;;;;;4974751;28;20172;-76
2023/10/30 04:46:28;;;;;;;7.90;2.30;;;12.10;99.90;;;;;;4974602;28;20691;-72
2023/10/30 04:48:54;;;;;;;12.43;2.40;;;12.10;99.90;;;;;;4974800;28;20172;-72
2023/10/30 04:51:20;;;;;;;10.57;2.23;;;12.10;99.90;;;;;;4974004;28;20664;-72
2023/10/30 04:53:46;;;;;;;9.83;2.27;;;12.10;99.90;;;;;;4973201;28;20550;-72
2023/10/30 04:56:11;;;;;;;8.53;2.27;;;12.10;99.90;;;;;;4973282;28;20183;-73
2023/10/30 04:58:37;;;;;;;10.70;2.33;;;12.10;99.90;;;;;;4974371;28;20307;-73
2023/10/30 05:01:09;;;;;;;10.13;2.40;;;12.10;99.90;;;;;;4973238;28;20176;-72
2023/10/30 05:03:38;;;;;;;10.50;2.17;;;12.10;99.90;;;;;;4974564;28;20187;-71
2023/10/30 05:06:04;;;;;;;9.00;2.07;;;12.10;99.90;;;;;;4974008;28;20674;-72
2023/10/30 05:08:30;;;;;;;8.37;2.50;;;12.10;99.90;;;;;;4974218;28;20176;-72
2023/10/30 05:10:56;;;;;;;12.83;3.20;;;12.10;99.90;;;;;;4974592;28;20264;-72
2023/10/30 05:13:21;;;;;;;7.67;2.17;;;12.10;99.90;;;;;;4973991;28;20630;-72
2023/10/30 05:15:47;;;;;;;10.57;2.50;;;12.10;99.90;;;;;;4973882;28;20175;-72
2023/10/30 05:18:21;;;;;;;9.83;2.70;;;12.10;99.90;;;;;;4974249;28;20168;-71
2023/10/30 05:20:46;;;;;;;14.27;2.70;;;12.10;99.90;;;;;;4973683;28;20266;-72
2023/10/30 05:23:12;;;;;;;9.90;2.83;;;12.10;99.90;;;;;;5005587;28;20266;-72
2023/10/30 05:25:38;;;;;;;9.83;2.43;;;12.10;99.90;;;;;;4973973;28;20223;-72
2023/10/30 05:28:03;;;;;;;7.63;2.27;;;12.00;99.90;;;;;;4972825;28;20171;-72
2023/10/30 05:30:30;;;;;;;11.23;2.43;;;12.00;99.90;;;;;;4974124;28;20172;-72
2023/10/30 05:32:56;;;;;;;10.13;2.30;;;12.00;99.90;;;;;;4972222;28;20270;-72
2023/10/30 05:35:21;;;;;;;7.37;2.83;;;12.00;99.90;;;;;;4973842;28;20270;-72
2023/10/30 05:37:47;;;;;;;13.40;2.80;;;11.90;99.90;;;;;;4974017;28;20176;-72
2023/10/30 05:40:13;;;;;;;11.43;2.80;;;12.00;99.90;;;;;;4974174;28;20184;-72
2023/10/30 05:42:39;;;;;;;8.63;2.33;;;11.90;99.90;;;;;;4975815;28;20251;-72
2023/10/30 05:45:06;;;;;;;7.83;2.20;;;11.90;99.90;;;;;;4977809;28;20749;-72
2023/10/30 05:47:32;;;;;;;6.90;2.30;;;11.90;99.90;;;;;;4977712;28;20175;-73
2023/10/30 05:49:57;;;;;;;9.10;2.63;;;11.90;99.90;;;;;;4977828;28;20278;-72
2023/10/30 05:52:23;;;;;;;8.40;2.73;;;11.90;99.90;;;;;;4977679;28;20499;-72
2023/10/30 05:54:50;;;;;;;6.87;2.37;;;11.90;99.90;;;;;;4977362;28;20211;-73
2023/10/30 05:57:17;;;;;;;8.27;2.37;;;11.90;99.90;;;;;;4977697;28;20164;-73
2023/10/30 05:59:42;;;;;;;11.00;2.00;;;11.90;99.90;;;;;;4977690;28;20176;-73
2023/10/30 06:02:08;;;;;;;12.47;2.87;;;11.90;99.90;;;;;;4977090;28;20573;-72
2023/10/30 06:04:33;;;;;;;7.97;2.47;;;11.80;99.90;;;;;;4977720;28;20714;-73
2023/10/30 06:06:59;;;;;;;10.37;2.57;;;11.80;99.90;;;;;;4976076;28;20284;-72
2023/10/30 06:09:26;;;;;;;11.40;3.00;;;11.80;99.90;;;;;;4977154;28;20192;-71
2023/10/30 06:11:52;;;;;;;9.77;2.77;;;11.80;99.90;;;;;;4977554;28;20215;-72
2023/10/30 06:14:19;;;;;;;10.67;2.50;;;11.70;99.90;;;;;;4976976;28;20254;-73
2023/10/30 06:16:44;;;;;;;8.30;2.47;;;11.70;99.90;;;;;;4976454;28;20222;-73
2023/10/30 06:19:10;;;;;;;10.37;2.77;;;11.70;99.90;;;;;;4976193;28;20175;-71
2023/10/30 06:21:39;;;;;;;10.60;2.40;;;11.70;99.90;;;;;;4976886;28;20541;-72
2023/10/30 06:24:08;;;;;;;13.23;3.17;;;11.70;99.90;;;;;;4976310;28;20215;-73
2023/10/30 06:26:34;;;;;;;8.70;2.33;;;11.70;99.90;;;;;;4975558;28;20244;-72
2023/10/30 06:28:59;;;;;;;8.97;2.50;;;11.70;99.90;;;;;;4975918;28;20172;-72
2023/10/30 06:31:25;;;;;;;9.40;2.37;;;11.70;99.90;;;;;;4976411;28;20279;-73
2023/10/30 06:33:51;;;;;;;9.27;2.40;;;11.60;99.90;;;;;;4976771;28;20202;-72
2023/10/30 06:36:16;;;;;;;9.03;2.60;;;11.60;99.90;;;;;;4976760;28;20700;-73
2023/10/30 06:38:42;;;;;;;11.50;2.43;;;11.60;99.90;;;;;;4976722;28;20231;-72
2023/10/30 06:41:08;;;;;;;10.43;2.73;;;11.70;99.90;;;;;;4976631;28;20175;-73
2023/10/30 06:43:33;;;;;;;11.67;2.77;;;11.70;99.90;;;;;;4975041;28;20204;-71
2023/10/30 06:46:03;;;;;;;11.23;3.13;;;11.70;99.90;;;;;;4976228;28;20246;-72
2023/10/30 06:48:29;;;;;;;10.37;2.93;;;11.70;99.90;;;;;;4976802;28;20242;-71
2023/10/30 06:50:55;;;;;;;10.63;2.73;;;11.70;99.90;;;;;;4975907;28;20651;-73
2023/10/30 06:53:24;;;;;;;15.43;2.93;;;11.70;99.90;;;;;;4976052;28;20656;-72
2023/10/30 06:55:50;;;;;;;9.97;3.27;;;11.70;99.90;;;;;;4975940;28;20176;-72
2023/10/30 06:58:23;;;;;;;12.10;3.40;;;11.70;99.90;;;;;;4976057;28;20168;-72
2023/10/30 07:00:49;;;;;;;14.20;3.13;;;11.80;99.90;;;;;;4975908;28;20628;-73
2023/10/30 07:03:15;;;;;;;9.73;2.37;;;11.90;99.90;;;;;;4976386;28;20307;-72
2023/10/30 07:05:42;;;;;;;14.23;2.90;;;12.10;99.90;;;;;;4975823;28;20255;-72
2023/10/30 07:08:08;;;;;;;17.37;3.37;;;12.20;99.90;;;;;;4975735;28;20172;-71
2023/10/30 07:10:33;;;;;;;12.57;3.30;;;12.30;99.90;;;;;;4975837;28;20176;-71
2023/10/30 07:12:59;;;;;;;13.47;3.13;;;12.50;99.90;;;;;;4974546;28;20311;-71
2023/10/30 07:15:26;;;;;;;14.87;2.90;;;12.90;99.90;;;;;;4975696;28;20644;-71
2023/10/30 07:17:56;;;;;;;11.60;2.93;;;13.10;99.90;;;;;;4976205;28;20255;-72
2023/10/30 07:20:22;;;;;;;9.23;2.70;;;13.40;99.90;;;;;;4975872;28;20299;-72
2023/10/30 07:22:48;;;;;;;9.83;2.60;;;13.70;99.90;;;;;;4975548;28;20199;-71
2023/10/30 07:25:14;;;;;;;7.23;2.50;;;13.80;99.90;;;;;;4975330;28;20220;-71
2023/10/30 07:27:39;;;;;;;10.27;3.20;;;14.00;99.90;;;;;;4976058;28;20700;-72
2023/10/30 07:30:06;;;;;;;12.00;3.07;;;14.10;99.90;;;;;;4975147;28;20176;-71
2023/10/30 07:32:31;;;;;;;11.53;3.43;;;14.00;99.90;;;;;;4974002;28;20258;-71
2023/10/30 07:34:57;;;;;;;8.00;2.60;;;13.90;99.90;;;;;;4975550;28;20203;-72
2023/10/30 07:37:22;;;;;;;12.27;2.97;;;13.70;99.90;;;;;;4975157;28;20172;-71
2023/10/30 07:39:48;;;;;;;12.17;3.07;;;13.70;99.90;;;;;;4974976;28;20199;-71
2023/10/30 07:42:14;;;;;;;16.37;3.53;;;13.80;99.90;;;;;;4975096;28;20251;-72
2023/10/30 07:44:40;;;;;;;12.37;3.10;;;13.80;99.90;;;;;;4975520;28;20175;-72
2023/10/30 07:47:05;;;;;;;14.27;3.60;;;13.90;99.90;;;;;;4974192;28;20184;-72
2023/10/30 07:49:31;;;;;;;11.00;2.90;;;13.90;99.90;;;;;;4975051;28;20196;-73
2023/10/30 07:51:57;;;;;;;10.43;2.80;;;13.80;99.90;;;;;;4973053;28;20176;-72
2023/10/30 07:54:22;;;;;;;8.73;3.40;;;13.90;99.90;;;;;;4974417;28;20211;-72
2023/10/30 07:56:48;;;;;;;14.83;3.10;;;13.80;99.90;;;;;;4975020;28;20179;-71
2023/10/30 07:59:14;;;;;;;13.73;2.93;;;13.80;99.90;;;;;;4974861;28;20180;-71
2023/10/30 08:01:40;;;;;;;12.17;3.10;;;13.80;99.90;;;;;;4973875;28;20230;-71
2023/10/30 08:04:09;;;;;;;7.30;3.10;;;13.70;99.90;;;;;;4975223;28;20513;-72
2023/10/30 08:06:35;;;;;;;9.00;2.97;;;13.70;99.90;;;;;;4973735;28;20187;-71
2023/10/30 08:09:00;;;;;;;16.10;3.33;;;13.70;99.90;;;;;;4974742;28;20628;-73
2023/10/30 08:11:27;;;;;;;11.13;3.27;;;13.70;99.90;;;;;;4974862;28;20247;-72
2023/10/30 08:13:52;;;;;;;8.07;2.90;;;13.70;99.90;;;;;;4974508;28;20218;-72
2023/10/30 08:16:18;;;;;;;9.40;3.10;;;13.70;99.90;;;;;;4974391;28;20172;-71
2023/10/30 08:18:44;;;;;;;10.50;3.00;;;13.70;99.90;;;;;;4975072;28;20513;-71
2023/10/30 08:21:09;;;;;;;9.87;3.00;;;13.80;99.90;;;;;;4975024;28;20538;-72
2023/10/30 08:23:37;;;;;;;11.70;2.70;;;13.80;99.90;;;;;;4974281;28;20184;-71
2023/10/30 08:26:04;;;;;;;10.37;3.13;;;13.90;99.90;;;;;;4974414;28;20176;-72
2023/10/30 08:28:30;;;;;;;9.83;3.00;;;13.90;99.90;;;;;;4974831;28;20176;-72
2023/10/30 08:30:56;;;;;;;16.23;3.97;;;14.00;99.90;;;;;;4974343;28;20231;-72
2023/10/30 08:33:21;;;;;;;13.03;3.00;;;14.00;99.90;;;;;;4974413;28;20278;-71
2023/10/30 08:35:47;;;;;;;9.10;2.87;;;14.00;99.90;;;;;;4974818;28;20180;-71
2023/10/30 08:38:13;;;;;;;13.13;2.90;;;14.00;99.90;;;;;;4974493;28;20187;-72
2023/10/30 08:40:39;;;;;;;13.47;3.17;;;13.90;99.90;;;;;;4973757;28;20184;-72
2023/10/30 08:43:04;;;;;;;10.33;3.17;;;13.90;99.90;;;;;;4974460;28;20171;-71
2023/10/30 08:45:30;;;;;;;15.50;3.40;;;13.90;99.90;;;;;;4974353;28;20262;-71
2023/10/30 08:47:56;;;;;;;14.03;3.50;;;13.90;99.90;;;;;;4974164;28;20168;-71
2023/10/30 08:50:21;;;;;;;11.67;3.37;;;14.00;99.90;;;;;;4974277;28;20668;-72
2023/10/30 08:52:48;;;;;;;12.17;3.53;;;14.00;99.90;;;;;;4974305;28;20692;-72
2023/10/30 08:55:14;;;;;;;14.13;3.50;;;14.00;99.90;;;;;;4974241;28;20212;-71
2023/10/30 08:57:39;;;;;;;13.97;3.83;;;14.00;99.90;;;;;;4974282;28;20263;-72
2023/10/30 09:00:07;;;;;;;12.57;3.53;;;14.00;99.90;;;;;;4974052;28;20299;-71
2023/10/30 09:02:33;;;;;;;13.83;3.90;;;14.20;99.90;;;;;;4974054;28;20168;-71
2023/10/30 09:04:59;;;;;;;16.83;4.17;;;14.30;99.90;;;;;;4974433;28;20172;-71
2023/10/30 09:07:24;;;;;;;10.07;3.13;;;14.10;99.90;;;;;;4972691;28;20951;-72
2023/10/30 09:09:50;;;;;;;10.17;2.87;;;14.00;99.90;;;;;;4973932;28;20176;-71
2023/10/30 09:12:17;;;;;;;9.57;3.43;;;14.00;99.90;;;;;;4973586;28;20175;-72
2023/10/30 09:14:42;;;;;;;5.27;2.90;;;14.00;99.90;;;;;;4973860;28;20211;-71
2023/10/30 09:17:09;;;;;;;9.33;3.40;;;13.80;99.90;;;;;;4973543;28;20175;-71
2023/10/30 09:19:35;;;;;;;10.50;3.10;;;13.70;99.90;;;;;;4972845;28;20279;-72
2023/10/30 09:22:01;;;;;;;10.83;3.37;;;13.60;99.90;;;;;;4974157;28;20172;-71
2023/10/30 09:24:27;;;;;;;8.30;2.40;;;13.60;99.90;;;;;;4973535;28;20238;-71
2023/10/30 09:26:52;;;;;;;9.87;2.77;;;13.50;99.90;;;;;;4972521;28;20263;-71
2023/10/30 09:29:18;;;;;;;6.63;2.60;;;13.40;99.90;;;;;;4973429;28;20262;-71
2023/10/30 09:31:44;;;;;;;8.17;2.73;;;13.40;99.90;;;;;;4973671;28;20480;-72
2023/10/30 09:34:10;;;;;;;8.73;2.17;;;13.50;99.90;;;;;;4973894;28;20214;-71
2023/10/30 09:36:36;;;;;;;7.77;2.40;;;13.40;99.90;;;;;;4974122;28;20271;-70
2023/10/30 09:39:01;;;;;;;6.90;2.33;;;13.50;99.90;;;;;;4973917;28;20275;-71
2023/10/30 09:41:28;;;;;;;9.13;2.50;;;13.50;99.90;;;;;;4972768;28;20198;-71
2023/10/30 09:43:54;;;;;;;9.90;2.20;;;13.60;99.90;;;;;;4973582;28;20212;-70
2023/10/30 09:46:27;;;;;;;5.87;2.40;;;13.70;99.90;;;;;;4973953;28;20167;-71
2023/10/30 09:48:54;;;;;;;5.67;2.13;;;13.90;99.90;;;;;;4971529;28;20191;-71
2023/10/30 09:51:21;;;;;;;6.57;2.20;;;14.00;99.90;;;;;;4971487;28;20192;-72
2023/10/30 09:53:48;;;;;;;4.80;2.40;;;14.10;99.90;;;;;;4973855;28;20210;-71
2023/10/30 09:56:16;;;;;;;5.17;2.10;;;14.20;99.90;;;;;;4973197;28;20587;-71
2023/10/30 09:58:42;;;;;;;8.40;2.43;;;14.20;99.90;;;;;;4973468;28;20243;-72
2023/10/30 10:01:08;;;;;;;5.37;2.07;;;14.20;99.90;;;;;;4972375;28;20636;-71
2023/10/30 10:03:33;;;;;;;8.93;2.10;;;14.30;99.90;;;;;;4973696;28;20214;-71
2023/10/30 10:06:00;;;;;;;7.47;1.83;;;14.20;99.90;;;;;;4973622;28;20640;-70
2023/10/30 10:08:26;;;;;;;5.07;2.27;;;14.20;99.90;;;;;;4972928;28;20172;-72
2023/10/30 10:11:00;;;;;;;10.87;2.83;;;14.30;99.90;;;;;;4973464;28;20258;-71
2023/10/30 10:13:27;;;;;;;4.73;2.27;;;14.40;99.90;;;;;;4973292;28;20203;-71
2023/10/30 10:15:53;;;;;;;8.53;1.93;;;14.60;99.90;;;;;;4973126;28;20187;-71
2023/10/30 10:18:26;;;;;;;5.87;1.90;;;14.60;99.90;;;;;;4972912;28;20172;-71
2023/10/30 10:21:04;;;;;;;4.63;1.73;;;14.40;99.90;;;;;;4973536;28;20184;-72
2023/10/30 10:23:34;;;;;;;5.27;1.70;;;14.20;99.90;;;;;;4972768;28;20239;-71
2023/10/30 10:26:14;;;;;;;3.77;1.70;;;14.30;99.90;;;;;;4973080;28;20283;-71
2023/10/30 10:28:44;;;;;;;3.90;1.73;;;14.30;99.90;;;;;;4972910;28;20536;-71
2023/10/30 10:31:09;;;;;;;5.03;1.90;;;14.20;99.90;;;;;;4976798;28;20175;-71
2023/10/30 10:33:36;;;;;;;6.20;2.17;;;14.20;99.90;;;;;;4977172;28;20258;-71
2023/10/30 10:36:04;;;;;;;5.07;2.37;;;14.20;99.90;;;;;;4976349;28;20255;-71
2023/10/30 10:38:31;;;;;;;4.53;2.50;;;14.10;99.90;;;;;;4976739;28;20170;-72
2023/10/30 10:40:57;;;;;;;4.27;1.87;;;14.00;99.90;;;;;;4975062;28;20199;-71
2023/10/30 10:43:26;;;;;;;3.27;2.03;;;13.90;99.90;;;;;;4976194;28;20667;-71
2023/10/30 10:45:54;;;;;;;5.13;2.50;;;13.90;99.90;;;;;;4976343;28;20172;-71
2023/10/30 10:48:21;;;;;;;4.43;2.00;;;13.90;99.90;;;;;;4976761;28;20175;-71
2023/10/30 10:50:47;;;;;;;4.70;1.70;;;13.60;99.90;;;;;;4976673;28;20203;-71
2023/10/30 10:53:16;;;;;;;5.40;1.30;;;13.50;99.90;;;;;;4974623;28;20195;-71
2023/10/30 10:55:45;;;;;;;3.67;1.60;;;13.20;99.90;;;;;;4975800;28;20210;-72
2023/10/30 10:58:12;;;;;;;4.33;1.50;;;13.20;99.90;;;;;;4975034;28;20176;-72
2023/10/30 11:00:46;;;;;;;3.23;1.53;;;13.20;99.90;;;;;;4976565;28;20250;-72
2023/10/30 11:03:13;;;;;;;7.87;1.80;;;13.20;99.90;;;;;;4976084;28;20242;-71
2023/10/30 11:05:39;;;;;;;5.87;1.40;;;13.30;99.90;;;;;;4976501;28;20188;-71
2023/10/30 11:08:11;;;;;;;7.30;1.77;;;13.30;99.90;;;;;;4976085;28;20172;-71
2023/10/30 11:11:14;;;;;;;9.43;2.70;;;13.40;99.90;;;;;;4976106;28;20195;-71
2023/10/30 11:13:55;;;;;;;3.63;2.07;;;13.60;99.90;;;;;;4976348;28;20254;-71
2023/10/30 11:16:28;;;;;;;8.27;2.50;;;13.60;99.90;;;;;;4975586;28;20627;-71
2023/10/30 11:18:58;;;;;;;4.87;2.70;;;13.60;99.90;;;;;;4976436;28;20180;-71
2023/10/30 11:21:26;;;;;;;5.20;2.10;;;13.80;99.90;;;;;;4975554;28;20164;-71
2023/10/30 11:23:59;;;;;;;4.17;2.27;;;13.80;99.90;;;;;;4975346;28;20180;-71
2023/10/30 11:26:38;;;;;;;4.07;2.20;;;13.80;99.90;;;;;;4974530;28;20180;-71
2023/10/30 11:29:21;;;;;;;5.80;2.50;;;13.90;99.90;;;;;;4975865;28;20172;-71
2023/10/30 11:32:03;;;;;;;7.13;2.63;;;14.10;99.90;;;;;;4975550;28;20172;-71
2023/10/30 11:34:30;;;;;;;8.50;2.67;;;14.20;99.90;;;;;;4975553;28;20214;-72
2023/10/30 11:37:12;;;;;;;4.50;2.13;;;14.10;99.90;;;;;;4975194;28;20519;-70
2023/10/30 11:39:42;;;;;;;7.50;2.53;;;14.00;99.90;;;;;;4974982;28;20206;-71
2023/10/30 11:42:23;;;;;;;7.10;2.93;;;13.90;99.90;;;;;;4975393;28;20176;-71
2023/10/30 11:44:53;;;;;;;4.17;2.03;;;13.90;99.90;;;;;;4975910;28;20262;-72
2023/10/30 11:47:22;;;;;;;2.73;1.83;;;14.00;99.90;;;;;;4975340;28;20178;-71
2023/10/30 11:49:48;;;;;;;3.53;1.80;;;14.00;99.90;;;;;;4975292;28;20298;-71
2023/10/30 11:52:14;;;;;;;2.40;1.57;;;13.70;99.90;;;;;;4974800;28;20682;-71
2023/10/30 11:54:41;;;;;;;6.13;2.00;;;13.50;99.90;;;;;;4975459;28;20230;-72
2023/10/30 11:57:07;;;;;;;7.50;2.73;;;13.30;99.90;;;;;;4975305;28;20175;-72
2023/10/30 11:59:33;;;;;;;11.57;3.43;;;13.30;99.90;;;;;;4974796;28;20172;-71
2023/10/30 12:01:59;;;;;;;5.17;2.87;;;13.40;99.90;;;;;;4975363;28;20164;-72
2023/10/30 12:04:25;;;;;;;6.73;2.83;;;13.70;99.90;;;;;;4973500;28;20242;-72
2023/10/30 12:06:51;;;;;;;6.43;2.60;;;13.80;99.90;;;;;;4973671;28;20183;-72
2023/10/30 12:09:18;;;;;;;6.43;3.00;;;14.00;99.90;;;;;;4975256;28;20172;-71
2023/10/30 12:11:44;;;;;;;4.53;3.30;;;14.00;99.90;;;;;;4974861;28;20274;-72
2023/10/30 12:14:13;;;;;;;9.27;4.57;;;14.00;99.90;;;;;;4974742;28;20310;-71
2023/10/30 12:16:44;;;;;;;8.70;4.00;;;14.10;99.90;;;;;;4974929;28;20179;-72
2023/10/30 12:19:10;;;;;;;8.43;4.20;;;14.20;99.90;;;;;;4974340;28;20271;-71
2023/10/30 12:21:36;;;;;;;3.40;2.80;;;14.20;99.90;;;;;;4974791;28;20284;-72
2023/10/30 12:24:01;;;;;;;3.17;2.80;;;14.20;99.90;;;;;;4974756;28;20538;-73
2023/10/30 12:26:27;;;;;;;3.57;2.93;;;14.20;99.90;;;;;;4974865;28;20175;-72
2023/10/30 12:29:00;;;;;;;6.47;4.60;;;14.00;99.90;;;;;;4974822;28;20632;-72
2023/10/30 12:31:26;;;;;;;4.40;3.97;;;13.80;99.90;;;;;;4973064;28;20219;-72
2023/10/30 12:34:09;;;;;;;5.50;2.80;;;13.70;99.90;;;;;;4974315;28;20298;-72
2023/10/30 12:36:35;;;;;;;6.00;4.13;;;13.70;99.90;;;;;;4974790;28;20176;-72
2023/10/30 12:39:10;;;;;;;5.70;3.53;;;13.80;99.90;;;;;;4974273;28;20526;-71
2023/10/30 12:41:36;;;;;;;6.13;2.93;;;13.70;99.90;;;;;;4974161;28;20179;-73